Time;durP1;ratioP1;P1;durP2;ratioP2;P2;SDS_P1;SDS_P2;PMS_P1;PMS_P2;Temp;Humidity;BMP_temperature;BMP_pressure;BME280_temperature;BME280_humidity;BME280_pressure;Samples;Min_cycle;Max_cycle;Signal;HPM_P1;HPM_P2
2022/09/04 00:01:02;;;;;;;;;;;;;;;19.26;59.41;101336.63;4917498;29;19919;-34
2022/09/04 00:03:39;;;;;;;;;;;;;;;19.22;60.12;101333.59;4943655;28;19918;-34
2022/09/04 00:06:08;;;;;;;;;;;;;;;19.16;59.94;101347.59;5014286;28;19913;-34
2022/09/04 00:08:52;;;;;;;;;;;;;;;19.14;59.96;101353.38;5013734;28;19913;-35
2022/09/04 00:11:17;;;;;;;;;;;;;;;19.11;59.64;101350.34;5013674;28;19943;-34
2022/09/04 00:13:56;;;;;;;;;;;;;;;19.10;59.98;101346.78;5013555;28;19918;-34
2022/09/04 00:16:21;;;;;;;;;;;;;;;19.09;61.03;101355.31;5029827;28;19913;-34
2022/09/04 00:18:49;;;;;;;;;;;;;;;19.04;60.28;101358.88;5053842;28;19999;-34
2022/09/04 00:21:28;;;;;;;;;;;;;;;18.98;60.44;101354.47;5053066;28;19959;-34
2022/09/04 00:24:06;;;;;;;;;;;;;;;18.93;60.66;101355.28;5053181;28;19913;-34
2022/09/04 00:26:49;;;;;;;;;;;;;;;18.92;60.58;101358.31;5053617;28;19951;-34
2022/09/04 00:29:21;;;;;;;;;;;;;;;18.88;62.58;101354.47;5053193;28;19978;-34
2022/09/04 00:31:52;;;;;;;;;;;;;;;18.83;61.55;101354.47;5053008;28;20000;-34
2022/09/04 00:34:18;;;;;;;;;;;;;;;18.82;61.12;101353.66;5064559;28;19911;-34
2022/09/04 00:36:45;;;;;;;;;;;;;;;18.82;61.00;101359.13;5115593;28;20393;-34
2022/09/04 00:39:19;;;;;;;;;;;;;;;18.80;62.14;101360.50;5115888;27;20401;-34
2022/09/04 00:42:03;;;;;;;;;;;;;;;18.75;61.69;101370.38;5115888;28;19958;-34
2022/09/04 00:44:40;;;;;;;;;;;;;;;18.70;61.52;101355.84;5115640;28;19923;-34
2022/09/04 00:47:08;;;;;;;;;;;;;;;18.65;61.89;101353.91;5116384;28;19954;-34
2022/09/04 00:49:36;;;;;;;;;;;;;;;18.63;61.57;101367.03;5115326;28;20363;-34
2022/09/04 00:52:23;;;;;;;;;;;;;;;18.63;61.82;101360.72;5115675;28;19912;-34
2022/09/04 00:55:00;;;;;;;;;;;;;;;18.46;67.82;101370.03;5115981;28;20413;-34
2022/09/04 00:57:44;;;;;;;;;;;;;;;18.30;69.59;101365.63;5115942;28;19918;-34
2022/09/04 01:00:14;;;;;;;;;;;;;;;18.21;66.50;101372.72;5115628;28;19911;-35
2022/09/04 01:02:47;;;;;;;;;;;;;;;18.20;65.23;101369.16;5115759;28;20313;-35
2022/09/04 01:05:31;;;;;;;;;;;;;;;18.20;65.08;101380.09;5115835;28;20264;-35
2022/09/04 01:08:14;;;;;;;;;;;;;;;18.19;64.53;101378.44;5115595;28;19919;-34
2022/09/04 01:10:46;;;;;;;;;;;;;;;18.21;64.27;101381.75;5114509;28;19962;-34
2022/09/04 01:13:32;;;;;;;;;;;;;;;18.20;64.32;101379.25;5115842;28;19919;-34
2022/09/04 01:16:04;;;;;;;;;;;;;;;18.20;63.91;101384.72;5115188;28;20371;-34
2022/09/04 01:18:44;;;;;;;;;;;;;;;18.19;64.14;101380.34;5115084;28;19916;-34
2022/09/04 01:21:12;;;;;;;;;;;;;;;18.19;63.59;101392.13;5115027;28;19919;-34
2022/09/04 01:23:59;;;;;;;;;;;;;;;18.20;64.17;101395.66;5114993;28;20359;-34
2022/09/04 01:26:43;;;;;;;;;;;;;;;18.18;65.26;101406.06;5115636;28;20014;-34
2022/09/04 01:29:17;;;;;;;;;;;;;;;18.14;64.05;101403.03;5114822;28;19916;-34
2022/09/04 01:31:57;;;;;;;;;;;;;;;18.14;64.78;101400.31;5113450;28;20420;-34
2022/09/04 01:34:33;;;;;;;;;;;;;;;18.09;65.08;101405.75;5114789;28;19911;-34
2022/09/04 01:37:04;;;;;;;;;;;;;;;18.06;66.80;101408.25;5114770;28;19916;-35
2022/09/04 01:39:30;;;;;;;;;;;;;;;17.97;66.72;101413.38;5114886;28;20291;-44
2022/09/04 01:42:00;;;;;;;;;;;;;;;17.91;65.97;101414.44;5114334;28;19918;-34
2022/09/04 01:44:26;;;;;;;;;;;;;;;17.88;66.34;101418.53;5115307;28;19981;-34
2022/09/04 01:46:54;;;;;;;;;;;;;;;17.85;65.71;101420.97;5114747;28;19959;-34
2022/09/04 01:49:25;;;;;;;;;;;;;;;17.85;65.20;101424.53;5114390;28;19919;-34
2022/09/04 01:51:55;;;;;;;;;;;;;;;17.87;65.37;101421.56;5114423;28;20002;-34
2022/09/04 01:54:36;;;;;;;;;;;;;;;17.85;64.80;101416.31;5114681;28;20274;-34
2022/09/04 01:57:17;;;;;;;;;;;;;;;17.84;65.08;101414.69;5114386;28;19937;-34
2022/09/04 01:59:42;;;;;;;;;;;;;;;17.82;65.61;101418.78;5114491;28;20285;-34
2022/09/04 02:02:19;;;;;;;;;;;;;;;17.79;65.59;101422.03;5114593;28;20006;-34
2022/09/04 02:04:55;;;;;;;;;;;;;;;17.78;65.59;101425.88;5114525;28;20048;-34
2022/09/04 02:07:38;;;;;;;;;;;;;;;17.75;65.72;101427.22;5114929;28;19911;-35
2022/09/04 02:10:11;;;;;;;;;;;;;;;17.75;65.18;101436.22;5113859;28;19912;-34
2022/09/04 02:12:36;;;;;;;;;;;;;;;17.74;66.69;101437.34;5114673;28;19918;-33
2022/09/04 02:15:03;;;;;;;;;;;;;;;17.71;65.96;101437.00;5113707;28;20313;-34
2022/09/04 02:17:31;;;;;;;;;;;;;;;17.70;65.91;101444.38;5114475;28;19977;-34
2022/09/04 02:20:02;;;;;;;;;;;;;;;17.70;66.06;101447.13;5113670;28;19911;-34
2022/09/04 02:22:34;;;;;;;;;;;;;;;17.68;66.55;101440.28;5113702;27;19911;-34
2022/09/04 02:25:17;;;;;;;;;;;;;;;17.67;66.27;101444.94;5114510;28;19915;-34
2022/09/04 02:27:55;;;;;;;;;;;;;;;17.66;67.05;101451.47;5113812;28;20252;-34
2022/09/04 02:30:20;;;;;;;;;;;;;;;17.66;66.33;101446.00;5113804;28;20295;-34
2022/09/04 02:32:58;;;;;;;;;;;;;;;17.65;66.50;101440.78;5113480;28;19919;-34
2022/09/04 02:35:34;;;;;;;;;;;;;;;17.66;68.72;101451.47;5113280;28;19911;-34
2022/09/04 02:38:18;;;;;;;;;;;;;;;17.62;68.18;101460.47;5114583;28;19919;-34
2022/09/04 02:40:51;;;;;;;;;;;;;;;17.56;68.17;101445.94;5113876;28;20371;-34
2022/09/04 02:43:22;;;;;;;;;;;;;;;17.54;68.09;101455.50;5113611;28;19918;-35
2022/09/04 02:45:47;;;;;;;;;;;;;;;17.53;67.94;101451.94;5114336;28;19998;-34
2022/09/04 02:48:18;;;;;;;;;;;;;;;17.52;68.00;101461.22;5113352;28;20325;-34
2022/09/04 02:51:02;;;;;;;;;;;;;;;17.51;68.63;101454.09;5113285;28;19916;-34
2022/09/04 02:53:45;;;;;;;;;;;;;;;17.50;69.88;101458.75;5114340;28;20306;-33
2022/09/04 02:56:16;;;;;;;;;;;;;;;17.46;68.15;101460.34;5114034;28;19958;-34
2022/09/04 02:58:54;;;;;;;;;;;;;;;17.45;68.37;101463.34;5114343;28;20257;-34
2022/09/04 03:01:31;;;;;;;;;;;;;;;17.44;68.25;101469.91;5113627;28;19930;-34
2022/09/04 03:04:11;;;;;;;;;;;;;;;17.41;68.49;101459.50;5114074;28;19911;-34
2022/09/04 03:06:51;;;;;;;;;;;;;;;17.38;68.64;101473.69;5113666;28;19959;-34
2022/09/04 03:09:20;;;;;;;;;;;;;;;17.34;69.39;101472.56;5113740;28;19911;-34
2022/09/04 03:11:57;;;;;;;;;;;;;;;17.35;69.39;101471.47;5113494;28;19911;-34
2022/09/04 03:14:51;;;;;;;;;;;;;;;17.36;68.57;101475.84;5113149;28;20379;-34
2022/09/04 03:17:36;;;;;;;;;;;;;;;17.39;69.13;101483.53;5030290;28;19924;-34
2022/09/04 03:20:07;;;;;;;;;;;;;;;17.39;69.49;101483.53;5030759;28;19931;-34
2022/09/04 03:22:38;;;;;;;;;;;;;;;17.32;72.11;101474.72;5030843;28;19956;-34
2022/09/04 03:25:22;;;;;;;;;;;;;;;17.25;69.53;101483.16;5031142;28;20023;-34
2022/09/04 03:27:47;;;;;;;;;;;;;;;17.24;70.56;101479.59;5030845;28;19913;-34
2022/09/04 03:30:13;;;;;;;;;;;;;;;17.23;69.61;101486.16;5030825;28;19920;-34
2022/09/04 03:32:53;;;;;;;;;;;;;;;17.23;71.40;101477.94;5030707;28;19924;-34
2022/09/04 03:35:29;;;;;;;;;;;;;;;17.18;70.81;101477.91;5034242;28;19970;-34
2022/09/04 03:38:01;;;;;;;;;;;;;;;17.15;70.98;101483.88;5034825;28;20434;-34
2022/09/04 03:40:36;;;;;;;;;;;;;;;17.13;70.14;101487.94;5034718;28;20246;-34
2022/09/04 03:43:20;;;;;;;;;;;;;;;17.13;71.80;101491.53;5034251;28;19919;-34
2022/09/04 03:45:58;;;;;;;;;;;;;;;17.09;70.90;101490.38;5033850;28;19952;-34
2022/09/04 03:48:38;;;;;;;;;;;;;;;17.08;71.77;101491.47;5034090;28;20361;-34
2022/09/04 03:51:16;;;;;;;;;;;;;;;17.06;70.35;101490.06;5033826;28;20114;-34
2022/09/04 03:53:44;;;;;;;;;;;;;;;17.04;71.62;101493.06;5076530;28;19919;-34
2022/09/04 03:56:27;;;;;;;;;;;;;;;17.02;70.92;101489.75;5116348;28;20383;-34
2022/09/04 03:59:14;;;;;;;;;;;;;;;16.97;71.06;101501.47;5117343;28;20044;-34
2022/09/04 04:01:40;;;;;;;;;;;;;;;16.95;72.43;101494.63;5116967;28;19921;-34
2022/09/04 04:04:17;;;;;;;;;;;;;;;16.92;72.33;101492.38;5117041;28;19912;-34
2022/09/04 04:06:48;;;;;;;;;;;;;;;16.92;71.79;101504.13;5116384;28;20279;-34
2022/09/04 04:09:17;;;;;;;;;;;;;;;16.90;71.46;101498.13;5116386;28;19912;-34
2022/09/04 04:11:52;;;;;;;;;;;;;;;16.89;72.45;101506.59;5116091;28;19912;-34
2022/09/04 04:14:36;;;;;;;;;;;;;;;16.86;71.86;101501.63;5116566;28;19915;-34
2022/09/04 04:17:19;;;;;;;;;;;;;;;16.84;72.36;101507.34;5115949;28;19963;-34
2022/09/04 04:19:51;;;;;;;;;;;;;;;16.82;72.36;101514.97;5116162;28;19915;-34
2022/09/04 04:22:26;;;;;;;;;;;;;;;16.80;71.96;101519.88;5116524;28;19918;-34
2022/09/04 04:25:10;;;;;;;;;;;;;;;16.79;71.86;101523.69;5116643;28;20014;-34
2022/09/04 04:27:47;;;;;;;;;;;;;;;16.79;72.26;101522.81;5115757;28;19911;-34
2022/09/04 04:30:16;;;;;;;;;;;;;;;16.79;73.16;101514.63;5115960;28;19911;-34
2022/09/04 04:33:00;;;;;;;;;;;;;;;16.77;73.56;101525.00;5116770;28;19957;-34
2022/09/04 04:35:25;;;;;;;;;;;;;;;16.71;72.73;101521.38;5116391;28;19923;-35
2022/09/04 04:38:06;;;;;;;;;;;;;;;16.70;73.59;101528.72;5115843;28;19919;-34
2022/09/04 04:40:46;;;;;;;;;;;;;;;16.70;73.56;101527.91;5115862;28;19912;-35
2022/09/04 04:43:30;;;;;;;;;;;;;;;16.69;73.23;101529.81;5116102;28;19957;-35
2022/09/04 04:46:02;;;;;;;;;;;;;;;16.68;74.32;101535.50;5114734;28;19912;-35
2022/09/04 04:48:39;;;;;;;;;;;;;;;16.67;73.04;101542.06;5116289;28;19911;-35
2022/09/04 04:51:04;;;;;;;;;;;;;;;16.69;72.91;101546.22;5115839;28;20355;-35
2022/09/04 04:53:38;;;;;;;;;;;;;;;16.72;73.05;101540.25;5116058;28;19912;-34
2022/09/04 04:56:30;;;;;;;;;;;;;;;16.72;74.09;101551.16;5115490;28;20376;-34
2022/09/04 04:59:19;;;;;;;;;;;;;;;16.67;74.10;101542.88;5111623;28;19981;-35
2022/09/04 05:02:06;;;;;;;;;;;;;;;16.65;73.53;101549.69;5115269;28;20359;-35
2022/09/04 05:04:34;;;;;;;;;;;;;;;16.63;73.39;101547.19;5115577;28;19912;-35
2022/09/04 05:07:07;;;;;;;;;;;;;;;16.63;75.75;101555.38;5114979;28;20049;-34
2022/09/04 05:09:50;;;;;;;;;;;;;;;16.62;75.51;101555.66;5114987;27;19948;-34
2022/09/04 05:12:23;;;;;;;;;;;;;;;16.62;75.87;101555.66;5115207;28;20070;-34
2022/09/04 05:15:07;;;;;;;;;;;;;;;16.62;74.98;101556.47;5115400;28;19915;-34
2022/09/04 05:17:51;;;;;;;;;;;;;;;16.62;74.52;101561.94;5115576;28;20274;-34
2022/09/04 05:20:22;;;;;;;;;;;;;;;16.65;74.92;101563.34;5115705;28;20315;-35
2022/09/04 05:22:50;;;;;;;;;;;;;;;16.67;73.96;101567.47;5115473;28;19916;-34
2022/09/04 05:25:23;;;;;;;;;;;;;;;16.69;74.16;101573.50;5114784;28;19919;-35
2022/09/04 05:27:48;;;;;;;;;;;;;;;16.73;74.97;101579.31;5115381;28;19919;-34
2022/09/04 05:30:13;;;;;;;;;;;;;;;16.74;74.92;101586.44;5114746;28;19911;-34
2022/09/04 05:32:42;;;;;;;;;;;;;;;16.75;76.12;101587.25;5115251;28;20283;-34
2022/09/04 05:35:32;;;;;;;;;;;;;;;16.73;75.30;101591.06;5114978;28;20052;-34
2022/09/04 05:38:09;;;;;;;;;;;;;;;16.79;74.95;101593.84;5114712;28;20394;-34
2022/09/04 05:40:47;;;;;;;;;;;;;;;16.83;74.84;101595.00;5114744;28;19945;-34
2022/09/04 05:43:15;;;;;;;;;;;;;;;16.87;73.94;101605.16;5114852;28;19923;-35
2022/09/04 05:45:50;;;;;;;;;;;;;;;16.95;75.08;101603.91;5114503;28;19916;-35
2022/09/04 05:48:15;;;;;;;;;;;;;;;16.98;74.35;101606.09;5115324;28;19958;-35
2022/09/04 05:50:52;;;;;;;;;;;;;;;17.01;77.37;101611.06;5114525;28;19961;-35
2022/09/04 05:53:26;;;;;;;;;;;;;;;17.01;77.96;101605.59;5114970;28;19911;-35
2022/09/04 05:56:01;;;;;;;;;;;;;;;17.04;76.24;101613.28;5114412;28;20010;-35
2022/09/04 05:58:36;;;;;;;;;;;;;;;17.10;76.31;101625.94;5114941;28;19919;-34
2022/09/04 06:01:04;;;;;;;;;;;;;;;17.13;79.44;101630.03;5115087;28;19922;-34
2022/09/04 06:03:48;;;;;;;;;;;;;;;17.14;76.78;101627.06;5114369;28;20310;-35
2022/09/04 06:06:25;;;;;;;;;;;;;;;17.18;76.04;101633.69;5114113;28;19923;-34
2022/09/04 06:09:11;;;;;;;;;;;;;;;17.23;75.56;101636.47;5113895;28;19911;-34
2022/09/04 06:11:36;;;;;;;;;;;;;;;17.28;77.28;101635.72;5113628;28;19919;-34
2022/09/04 06:14:04;;;;;;;;;;;;;;;17.29;76.17;101626.41;5114604;28;19911;-34
2022/09/04 06:16:37;;;;;;;;;;;;;;;17.35;76.03;101630.84;5114300;28;19912;-34
2022/09/04 06:19:02;;;;;;;;;;;;;;;17.47;76.48;101627.94;5114041;28;19915;-34
2022/09/04 06:21:46;;;;;;;;;;;;;;;17.54;76.69;101631.31;5114506;28;19915;-34
2022/09/04 06:24:14;;;;;;;;;;;;;;;17.60;76.40;101633.00;5114526;28;19912;-34
2022/09/04 06:26:49;;;;;;;;;;;;;;;17.66;75.90;101631.97;5114072;28;20349;-34
2022/09/04 06:29:17;;;;;;;;;;;;;;;17.72;76.47;101639.16;5114161;28;19912;-35
2022/09/04 06:31:52;;;;;;;;;;;;;;;17.77;77.26;101643.88;5114618;28;19911;-35
2022/09/04 06:34:32;;;;;;;;;;;;;;;17.82;76.03;101646.66;5114025;28;20317;-35
2022/09/04 06:37:16;;;;;;;;;;;;;;;17.85;76.99;101651.59;5114297;28;19937;-35
2022/09/04 06:39:49;;;;;;;;;;;;;;;17.90;79.49;101650.81;5114063;28;19915;-35
2022/09/04 06:42:34;;;;;;;;;;;;;;;17.88;78.41;101648.34;5114457;28;19912;-35
2022/09/04 06:45:18;;;;;;;;;;;;;;;17.88;79.18;101650.28;5114036;28;19912;-34
2022/09/04 06:47:46;;;;;;;;;;;;;;;17.90;78.38;101654.38;5114560;28;19992;-34
2022/09/04 06:50:34;;;;;;;;;;;;;;;17.93;80.13;101653.06;5113629;28;19918;-34
2022/09/04 06:53:14;;;;;;;;;;;;;;;17.96;79.13;101653.38;5113789;28;19911;-34
2022/09/04 06:55:41;;;;;;;;;;;;;;;18.03;79.38;101658.59;5113755;28;19915;-34
2022/09/04 06:58:14;;;;;;;;;;;;;;;18.09;79.83;101654.81;5114267;28;19912;-34
2022/09/04 07:00:58;;;;;;;;;;;;;;;18.16;80.49;101654.63;5113891;28;19969;-34
2022/09/04 07:03:26;;;;;;;;;;;;;;;18.22;78.90;101656.28;5113951;28;19911;-34
2022/09/04 07:05:51;;;;;;;;;;;;;;;18.29;78.45;101651.41;5113249;28;20385;-34
2022/09/04 07:08:31;;;;;;;;;;;;;;;18.38;78.38;101655.31;5115912;28;19912;-34
2022/09/04 07:10:56;;;;;;;;;;;;;;;18.49;80.34;101661.66;5118027;28;20369;-35
2022/09/04 07:13:32;;;;;;;;;;;;;;;18.57;78.67;101657.63;5118381;28;19911;-35
2022/09/04 07:16:06;;;;;;;;;;;;;;;18.65;79.81;101666.16;5117633;28;20363;-34
2022/09/04 07:18:50;;;;;;;;;;;;;;;18.73;79.84;101662.13;5117534;28;19912;-34
2022/09/04 07:21:34;;;;;;;;;;;;;;;18.81;79.00;101669.03;5117453;28;19956;-34
2022/09/04 07:24:22;;;;;;;;;;;;;;;18.88;78.58;101669.59;5117484;28;19911;-35
2022/09/04 07:26:58;;;;;;;;;;;;;;;18.96;80.48;101667.19;5117289;28;20264;-34
2022/09/04 07:29:41;;;;;;;;;;;;;;;19.03;80.75;101669.66;5117552;28;19912;-35
2022/09/04 07:32:14;;;;;;;;;;;;;;;19.10;79.96;101678.47;5117525;28;19912;-35
2022/09/04 07:34:39;;;;;;;;;;;;;;;19.18;79.34;101675.22;5115990;28;19922;-35
2022/09/04 07:37:12;;;;;;;;;;;;;;;19.27;80.38;101678.25;5117471;28;20002;-35
2022/09/04 07:39:56;;;;;;;;;;;;;;;19.37;79.69;101683.78;5116797;28;19918;-35
2022/09/04 07:42:21;;;;;;;;;;;;;;;19.46;80.63;101670.38;5117406;28;20010;-35
2022/09/04 07:44:59;;;;;;;;;;;;;;;19.49;81.40;101681.63;5116624;28;20011;-35
2022/09/04 07:47:34;;;;;;;;;;;;;;;19.58;80.39;101692.91;5117381;28;19912;-35
2022/09/04 07:50:08;;;;;;;;;;;;;;;19.69;82.14;101696.53;5117099;27;19938;-35
2022/09/04 07:52:38;;;;;;;;;;;;;;;19.76;79.88;101691.56;5117491;28;20256;-35
2022/09/04 07:55:09;;;;;;;;;;;;;;;19.87;80.57;101692.44;5116673;28;20379;-34
2022/09/04 07:57:57;;;;;;;;;;;;;;;19.97;79.82;101697.94;5117463;28;19918;-34
2022/09/04 08:00:24;;;;;;;;;;;;;;;20.09;80.05;101703.16;5116403;28;19992;-35
2022/09/04 08:02:55;;;;;;;;;;;;;;;20.15;79.76;101704.78;5117006;28;19919;-34
2022/09/04 08:05:23;;;;;;;;;;;;;;;20.25;80.27;101708.38;5116362;28;20287;-34
2022/09/04 08:07:53;;;;;;;;;;;;;;;20.37;81.04;101707.28;5116832;28;19924;-35
2022/09/04 08:10:18;;;;;;;;;;;;;;;20.44;79.63;101702.31;5116164;28;19918;-34
2022/09/04 08:12:44;;;;;;;;;;;;;;;20.46;79.29;101708.38;5116834;28;20010;-34
2022/09/04 08:15:09;;;;;;;;;;;;;;;20.50;79.28;101713.06;5116304;28;19911;-35
2022/09/04 08:17:43;;;;;;;;;;;;;;;20.64;79.35;101712.47;5116675;28;19912;-35
2022/09/04 08:20:11;;;;;;;;;;;;;;;20.79;78.89;101710.53;5116131;28;20002;-34
2022/09/04 08:22:36;;;;;;;;;;;;;;;20.91;78.34;101717.66;5116892;28;19912;-34
2022/09/04 08:25:12;;;;;;;;;;;;;;;20.95;77.96;101721.50;5116091;28;20285;-34
2022/09/04 08:27:46;;;;;;;;;;;;;;;20.95;78.12;101714.06;5116125;28;19916;-34
2022/09/04 08:30:13;;;;;;;;;;;;;;;21.03;77.43;101713.50;5115910;28;19912;-34
2022/09/04 08:32:57;;;;;;;;;;;;;;;21.14;77.48;101716.22;5116265;28;20010;-34
2022/09/04 08:35:25;;;;;;;;;;;;;;;21.28;77.06;101720.00;5116021;28;19912;-34
2022/09/04 08:37:53;;;;;;;;;;;;;;;21.42;77.18;101729.28;5116313;28;19937;-34
2022/09/04 08:40:36;;;;;;;;;;;;;;;21.50;76.67;101725.97;5115570;28;20027;-34
2022/09/04 08:43:04;;;;;;;;;;;;;;;21.59;76.15;101727.03;5116392;28;19918;-33
2022/09/04 08:45:32;;;;;;;;;;;;;;;21.73;76.01;101724.47;5115707;28;20283;-35
2022/09/04 08:48:08;;;;;;;;;;;;;;;21.86;75.67;101725.75;5115657;28;19915;-35
2022/09/04 08:50:51;;;;;;;;;;;;;;;21.99;75.08;101738.06;5116225;28;20289;-34
2022/09/04 08:53:19;;;;;;;;;;;;;;;22.07;74.55;101737.47;5116190;28;19912;-34
2022/09/04 08:55:54;;;;;;;;;;;;;;;22.15;74.13;101727.78;5115567;28;19973;-35
2022/09/04 08:58:38;;;;;;;;;;;;;;;22.23;74.00;101727.16;5116092;28;19949;-34
2022/09/04 09:01:09;;;;;;;;;;;;;;;22.28;73.32;101730.72;5115637;28;19916;-34
2022/09/04 09:03:53;;;;;;;;;;;;;;;22.30;73.39;101727.66;5115920;28;20356;-34
2022/09/04 09:06:18;;;;;;;;;;;;;;;22.41;73.35;101731.16;5115559;28;19931;-34
2022/09/04 09:09:02;;;;;;;;;;;;;;;22.52;72.20;101738.22;5115720;28;20380;-35
2022/09/04 09:11:45;;;;;;;;;;;;;;;22.62;72.25;101733.44;5115664;28;19954;-35
2022/09/04 09:14:14;;;;;;;;;;;;;;;22.74;72.15;101734.97;5114267;28;19919;-35
2022/09/04 09:16:43;;;;;;;;;;;;;;;22.90;71.68;101730.97;5115517;28;19969;-35
2022/09/04 09:19:11;;;;;;;;;;;;;;;23.05;71.15;101733.56;5115198;28;19918;-35
2022/09/04 09:21:37;;;;;;;;;;;;;;;23.22;70.38;101735.84;5115434;28;20370;-35
2022/09/04 09:24:18;;;;;;;;;;;;;;;23.35;69.31;101732.38;5115119;28;19911;-35
2022/09/04 09:26:56;;;;;;;;;;;;;;;23.45;68.58;101731.41;5115179;28;19918;-35
2022/09/04 09:29:21;;;;;;;;;;;;;;;23.57;67.72;101719.91;5115000;28;19911;-35
2022/09/04 09:32:06;;;;;;;;;;;;;;;23.70;67.68;101721.97;5114620;28;19935;-34
2022/09/04 09:34:43;;;;;;;;;;;;;;;23.81;68.28;101722.66;5114590;28;19911;-34
2022/09/04 09:37:37;;;;;;;;;;;;;;;23.93;67.15;101714.75;5114729;28;19954;-35
2022/09/04 09:40:21;;;;;;;;;;;;;;;24.02;67.27;101717.66;5031804;28;19920;-34
2022/09/04 09:42:53;;;;;;;;;;;;;;;24.14;65.49;101726.28;5031940;28;20315;-35
2022/09/04 09:45:25;;;;;;;;;;;;;;;24.24;66.10;101714.25;5031901;28;19917;-34
2022/09/04 09:48:05;;;;;;;;;;;;;;;24.33;64.02;101724.31;5015478;28;19916;-35
2022/09/04 09:50:57;;;;;;;;;;;;;;;24.38;64.81;101721.47;5031764;28;19919;-34
2022/09/04 09:53:25;;;;;;;;;;;;;;;24.47;63.99;101723.56;5028840;28;19959;-35
2022/09/04 09:55:50;;;;;;;;;;;;;;;24.51;62.73;101714.34;5032193;28;19920;-35
2022/09/04 09:58:33;;;;;;;;;;;;;;;24.61;63.70;101722.47;5031866;28;19913;-34
2022/09/04 10:01:18;;;;;;;;;;;;;;;24.70;62.79;101716.22;5031203;28;19920;-35
2022/09/04 10:03:45;;;;;;;;;;;;;;;24.69;62.25;101718.16;5031448;28;19913;-35
2022/09/04 10:06:23;;;;;;;;;;;;;;;24.79;62.38;101720.75;5031946;28;19920;-35
2022/09/04 10:09:02;;;;;;;;;;;;;;;24.93;61.41;101721.56;5031893;28;19917;-35
2022/09/04 10:11:50;;;;;;;;;;;;;;;25.05;61.04;101717.47;5031428;28;19967;-35
2022/09/04 10:14:27;;;;;;;;;;;;;;;25.17;58.96;101717.81;5031827;28;20012;-35
2022/09/04 10:17:13;;;;;;;;;;;;;;;25.15;59.37;101714.53;5087765;28;20359;-35
2022/09/04 10:19:49;;;;;;;;;;;;;;;25.06;59.57;101708.88;5114088;28;19912;-35
2022/09/04 10:22:36;;;;;;;;;;;;;;;25.11;61.09;101711.56;5114352;28;19915;-34
2022/09/04 10:25:19;;;;;;;;;;;;;;;25.40;60.75;101718.72;5114361;28;19911;-34
2022/09/04 10:28:03;;;;;;;;;;;;;;;25.39;59.74;101715.13;5114582;28;19912;-35
2022/09/04 10:30:39;;;;;;;;;;;;;;;25.30;59.79;101725.28;5113730;28;20006;-34
2022/09/04 10:33:04;;;;;;;;;;;;;;;25.26;60.12;101715.94;5113970;28;19916;-35
2022/09/04 10:35:34;;;;;;;;;;;;;;;25.19;59.86;101717.50;5113577;28;20410;-35
2022/09/04 10:38:05;;;;;;;;;;;;;;;25.09;59.05;101724.88;5113965;28;20010;-35
2022/09/04 10:40:39;;;;;;;;;;;;;;;24.99;59.19;101735.31;5114144;28;20267;-35
2022/09/04 10:43:42;;;;;;;;;;;;;;;24.88;59.90;101732.72;5113676;28;19965;-35
2022/09/04 10:46:09;;;;;;;;;;;;;;;25.08;60.19;101727.94;5031357;28;19913;-35
2022/09/04 10:48:34;;;;;;;;;;;;;;;25.41;57.94;101726.69;5031444;28;20308;-34
2022/09/04 10:51:00;;;;;;;;;;;;;;;25.71;57.74;101727.13;5031627;28;19913;-34
2022/09/04 10:53:37;;;;;;;;;;;;;;;26.00;56.44;101725.94;5030773;28;20032;-35
2022/09/04 10:56:07;;;;;;;;;;;;;;;26.26;55.20;101724.19;5030820;28;20016;-34
2022/09/04 10:58:40;;;;;;;;;;;;;;;26.51;54.07;101722.75;5031048;28;19913;-35
2022/09/04 11:01:26;;;;;;;;;;;;;;;26.59;54.08;101716.41;5030946;28;19917;-35
2022/09/04 11:03:57;;;;;;;;;;;;;;;26.64;52.61;101715.47;5030910;28;19920;-35
2022/09/04 11:06:39;;;;;;;;;;;;;;;26.54;53.03;101716.56;5031299;28;20221;-35
2022/09/04 11:09:13;;;;;;;;;;;;;;;26.53;52.32;101719.66;5030826;28;19914;-34
2022/09/04 11:11:49;;;;;;;;;;;;;;;26.54;52.24;101713.78;5030726;28;19917;-34
2022/09/04 11:14:27;;;;;;;;;;;;;;;26.49;51.74;101719.47;5031388;28;19913;-35
2022/09/04 11:16:56;;;;;;;;;;;;;;;26.68;51.34;101722.81;5072027;28;19911;-35
2022/09/04 11:19:21;;;;;;;;;;;;;;;26.87;51.62;101711.50;5113513;28;19956;-35
2022/09/04 11:21:46;;;;;;;;;;;;;;;27.05;49.82;101706.84;5113444;28;20002;-35
2022/09/04 11:24:27;;;;;;;;;;;;;;;27.24;48.49;101708.56;5114342;28;19954;-35
2022/09/04 11:26:56;;;;;;;;;;;;;;;27.33;49.60;101710.22;5113855;28;19918;-34
2022/09/04 11:29:29;;;;;;;;;;;;;;;27.15;47.45;101705.75;5113559;28;19912;-34
2022/09/04 11:32:07;;;;;;;;;;;;;;;27.06;49.53;101710.41;5113406;28;20006;-34
2022/09/04 11:34:44;;;;;;;;;;;;;;;27.05;49.77;101712.38;5113831;28;19919;-34
2022/09/04 11:37:32;;;;;;;;;;;;;;;27.12;48.71;101721.06;5113963;28;19955;-35
2022/09/04 11:40:19;;;;;;;;;;;;;;;27.29;49.10;101712.00;5113706;28;20003;-34
2022/09/04 11:43:12;;;;;;;;;;;;;;;27.35;47.76;101716.25;5113345;28;19912;-34
2022/09/04 11:45:37;;;;;;;;;;;;;;;27.32;47.87;101713.28;5110539;28;20018;-34
2022/09/04 11:48:21;;;;;;;;;;;;;;;27.15;47.98;101709.34;5113627;28;19960;-35
2022/09/04 11:50:58;;;;;;;;;;;;;;;26.89;48.42;101714.78;5113146;28;19923;-35
2022/09/04 11:53:39;;;;;;;;;;;;;;;26.68;48.91;101719.25;5114327;28;19911;-35
2022/09/04 11:56:23;;;;;;;;;;;;;;;26.55;49.71;101717.38;5117402;28;19951;-35
2022/09/04 11:58:57;;;;;;;;;;;;;;;26.49;48.56;101721.41;5116855;28;20018;-35
2022/09/04 12:01:22;;;;;;;;;;;;;;;26.46;48.50;101724.84;5117206;28;20017;-35
2022/09/04 12:03:57;;;;;;;;;;;;;;;26.56;49.33;101721.81;5117463;28;19955;-35
2022/09/04 12:06:33;;;;;;;;;;;;;;;26.79;48.53;101720.63;5116916;28;20338;-35
2022/09/04 12:09:14;;;;;;;;;;;;;;;26.97;49.14;101715.94;5116925;28;19916;-35
2022/09/04 12:11:59;;;;;;;;;;;;;;;27.04;48.00;101721.03;5116472;28;20252;-35
2022/09/04 12:14:36;;;;;;;;;;;;;;;27.04;45.41;101723.81;5116857;28;19951;-35
2022/09/04 12:17:22;;;;;;;;;;;;;;;27.19;44.22;101728.97;5116482;28;19915;-35
2022/09/04 12:20:14;;;;;;;;;;;;;;;27.38;42.79;101734.22;5116435;28;19912;-35
2022/09/04 12:22:58;;;;;;;;;;;;;;;27.46;42.24;101727.84;5017200;28;19967;-35
2022/09/04 12:25:32;;;;;;;;;;;;;;;27.64;43.73;101735.06;5033484;28;19975;-35
2022/09/04 12:28:33;;;;;;;;;;;;;;;27.76;42.52;101739.19;5033490;28;20007;-35
2022/09/04 12:31:04;;;;;;;;;;;;;;;27.85;43.97;101724.16;4974975;28;19918;-35
2022/09/04 12:33:32;;;;;;;;;;;;;;;28.01;43.33;101732.81;4974583;28;20017;-35
2022/09/04 12:36:12;;;;;;;;;;;;;;;28.13;42.75;101729.38;4974406;28;19914;-35
2022/09/04 12:38:55;;;;;;;;;;;;;;;28.29;41.55;101730.50;4974469;28;19917;-36
2022/09/04 12:41:39;;;;;;;;;;;;;;;28.36;42.08;101722.50;4974298;28;19914;-35
2022/09/04 12:44:22;;;;;;;;;;;;;;;28.37;40.13;101729.72;4974209;28;19929;-35
2022/09/04 12:46:54;;;;;;;;;;;;;;;28.42;41.09;101737.88;4974835;28;20009;-35
2022/09/04 12:49:28;;;;;;;;;;;;;;;28.44;40.96;101735.56;4974008;28;19914;-35
2022/09/04 12:52:16;;;;;;;;;;;;;;;28.48;40.42;101739.31;4974690;28;19920;-35
2022/09/04 12:54:49;;;;;;;;;;;;;;;28.51;40.20;101735.06;4974658;28;19954;-35
2022/09/04 12:57:30;;;;;;;;;;;;;;;28.53;40.02;101734.75;4957353;28;19914;-35
2022/09/04 13:00:11;;;;;;;;;;;;;;;28.48;41.76;101736.53;5042746;28;19987;-35
2022/09/04 13:02:45;;;;;;;;;;;;;;;28.38;40.14;101733.31;5072510;28;19962;-35
2022/09/04 13:05:29;;;;;;;;;;;;;;;28.29;40.63;101735.25;5089233;28;19977;-35
2022/09/04 13:07:58;;;;;;;;;;;;;;;28.14;39.13;101725.47;5115995;28;19942;-35
2022/09/04 13:10:32;;;;;;;;;;;;;;;28.04;39.22;101736.91;5115217;28;20247;-35
2022/09/04 13:13:03;;;;;;;;;;;;;;;28.04;40.43;101737.72;5116101;28;20298;-35
2022/09/04 13:15:46;;;;;;;;;;;;;;;28.12;39.27;101745.25;5115702;28;19916;-35
2022/09/04 13:18:19;;;;;;;;;;;;;;;28.28;38.93;101742.78;5115246;28;19912;-35